»·PEaware :: N612C KCRQ-KSNA

N612C :: KCRQ-KSNA

FLIGHT INFORMATION

Flight Status: Arrived
Operator: Privately registered:
United States
More flights under this callsign
Pilot: Don H. (15606)
Aircraft: SOCATA TBM-850
(TBM8)
More flights by this aircraft type
Origin: KCRQ McClellan-Palomar
United States
Destination: KSNA John Wayne-Orange Co
United States
More flights between these airports :: More routes between these airports
Route: DCT
File this flight plan on PilotEdge
Remarks:
Altitude:
(Current/Filed)
4,500ft
Speed:
(Current/Filed)
225kts
Departed: 03-Oct-18 12:34 PM
Arrived: 03-Oct-18 01:10 PM
Distance/Time
Traveled:
44nm/0:36
Distance/Time
To Go:
Arrived

Flight Plot

Page will automatically refresh every two minutes.


Map Options




Map Legend


Flown Route
Filed Route
Departure Airport
Arrival Airport
Navaid (VOR, NDB)
Fix

Horizontal Profiles

Position Reports

Time Latitude Longitude Heading Altitude Ground
Speed
03-Oct-18 12:29 33.127543 -117.274790 258 334ft 0kts
03-Oct-18 12:30 33.127543 -117.274790 258 334ft 0kts
03-Oct-18 12:31 33.127543 -117.274790 258 334ft 0kts
03-Oct-18 12:32 33.127543 -117.274790 258 334ft 0kts
03-Oct-18 12:33 33.127927 -117.275145 354 334ft 7kts
03-Oct-18 12:34 33.128723 -117.272488 2 334ft 0kts
03-Oct-18 12:35 33.128723 -117.272488 2 334ft 0kts
03-Oct-18 12:36 33.128190 -117.280319 259 335ft 98kts
03-Oct-18 12:37 33.122473 -117.317766 275 1761ft 135kts
03-Oct-18 12:38 33.147014 -117.361149 337 2682ft 186kts
03-Oct-18 12:39 33.189638 -117.383041 343 3984ft 180kts
03-Oct-18 12:40 33.230701 -117.418769 319 4509ft 213kts
03-Oct-18 12:41 33.277158 -117.465742 320 4502ft 234kts
03-Oct-18 12:42 33.326924 -117.515624 320 4500ft 239kts
03-Oct-18 12:43 33.377229 -117.566059 320 4500ft 240kts
03-Oct-18 12:44 33.426800 -117.615828 320 4500ft 240kts
03-Oct-18 12:45 33.475063 -117.664357 319 4500ft 240kts
03-Oct-18 12:46 33.518308 -117.720917 302 4502ft 237kts
03-Oct-18 12:47 33.553291 -117.786217 302 4500ft 239kts
03-Oct-18 12:48 33.587780 -117.850677 302 4500ft 239kts
03-Oct-18 12:49 33.621938 -117.914521 302 4489ft 225kts
03-Oct-18 12:50 33.625888 -117.970744 219 3606ft 219kts
03-Oct-18 12:51 33.580467 -118.017920 220 2490ft 201kts
03-Oct-18 12:52 33.540239 -118.050945 193 2496ft 162kts
03-Oct-18 12:53 33.499518 -118.062057 192 2495ft 144kts
03-Oct-18 12:54 33.461777 -118.057542 169 2498ft 134kts
03-Oct-18 12:55 33.426092 -118.049198 149 2495ft 130kts
03-Oct-18 12:56 33.437650 -118.023061 9 2503ft 126kts
03-Oct-18 12:57 33.471940 -118.015906 9 2499ft 126kts
03-Oct-18 12:58 33.505672 -118.008869 9 2499ft 126kts
03-Oct-18 12:59 33.537225 -118.002303 9 2478ft 108kts
03-Oct-18 13:00 33.552470 -117.998962 22 2418ft 80kts
03-Oct-18 13:01 33.574450 -117.991078 15 1512ft 119kts
03-Oct-18 13:02 33.600156 -118.003923 328 1610ft 109kts
03-Oct-18 13:03 33.628220 -118.022745 333 1605ft 132kts
03-Oct-18 13:04 33.660715 -118.041893 333 1602ft 143kts
03-Oct-18 13:05 33.694380 -118.048506 31 1604ft 145kts
03-Oct-18 13:06 33.723715 -118.024954 50 1561ft 149kts
03-Oct-18 13:07 33.711432 -117.984630 134 1434ft 154kts
03-Oct-18 13:08 33.690561 -117.939763 101 1059ft 167kts
03-Oct-18 13:09 33.705665 -117.896843 20 888ft 161kts
03-Oct-18 13:10 33.725352 -117.865741 113 340ft 123kts
03-Oct-18 13:11 33.692582 -117.858211 206 432ft 130kts
03-Oct-18 13:12 33.670986 -117.871776 210 59ft 13kts
03-Oct-18 13:13 33.670090 -117.873231 289 59ft 0kts
03-Oct-18 13:14 33.670911 -117.873923 337 59ft 5kts
03-Oct-18 13:15 33.670771 -117.874132 210 59ft 0kts
03-Oct-18 13:16 33.670771 -117.874132 210 59ft 0kts
03-Oct-18 13:17 33.670771 -117.874132 210 59ft 0kts
03-Oct-18 13:18 33.670771 -117.874132 210 59ft 0kts
03-Oct-18 13:19 33.670771 -117.874132 210 59ft 0kts
03-Oct-18 13:20 33.670771 -117.874132 210 59ft 0kts
03-Oct-18 13:21 33.670771 -117.874132 210 59ft 0kts
03-Oct-18 13:22 33.670771 -117.874132 210 59ft 0kts
03-Oct-18 13:23 33.670771 -117.874132 210 59ft 0kts
03-Oct-18 13:24 33.670771 -117.874132 210 59ft 0kts
03-Oct-18 13:25 33.670771 -117.874132 210 59ft 0kts
03-Oct-18 13:26 33.670771 -117.874132 210 59ft 0kts
03-Oct-18 13:27 33.670771 -117.874132 210 59ft 0kts

Navigation Log

Ident Type
Flight plan parsing failed, navigation log unavailable